sensor_id;sensor_type;location;lat;lon;timestamp;pressure;altitude;pressure_sealevel;temperature;humidity
84677;BME280;74901;55.024;73.254;2024-01-11T00:00:07;98712.56;;;-23.65;76.98
84677;BME280;74901;55.024;73.254;2024-01-11T00:02:36;98711.41;;;-23.69;76.74
84677;BME280;74901;55.024;73.254;2024-01-11T00:05:06;98732.41;;;-23.71;77.01
84677;BME280;74901;55.024;73.254;2024-01-11T00:07:36;98710.47;;;-23.75;76.81
84677;BME280;74901;55.024;73.254;2024-01-11T00:10:06;98748.84;;;-23.77;76.43
84677;BME280;74901;55.024;73.254;2024-01-11T00:12:35;98730.09;;;-23.79;76.25
84677;BME280;74901;55.024;73.254;2024-01-11T00:15:04;98728.94;;;-23.83;76.48
84677;BME280;74901;55.024;73.254;2024-01-11T00:17:34;98740.13;;;-23.82;76.81
84677;BME280;74901;55.024;73.254;2024-01-11T00:20:02;98759.38;;;-23.90;76.37
84677;BME280;74901;55.024;73.254;2024-01-11T00:22:32;98735.78;;;-23.88;76.40
84677;BME280;74901;55.024;73.254;2024-01-11T00:25:03;98767.38;;;-23.92;76.04
84677;BME280;74901;55.024;73.254;2024-01-11T00:27:32;98738.88;;;-23.98;76.56
84677;BME280;74901;55.024;73.254;2024-01-11T00:30:01;98746.88;;;-24.00;75.97
84677;BME280;74901;55.024;73.254;2024-01-11T00:32:30;98780.47;;;-24.05;76.29
84677;BME280;74901;55.024;73.254;2024-01-11T00:34:58;98746.88;;;-24.00;76.19
84677;BME280;74901;55.024;73.254;2024-01-11T00:37:27;98768.72;;;-24.07;76.06
84677;BME280;74901;55.024;73.254;2024-01-11T00:39:56;98765.75;;;-24.11;75.86
84677;BME280;74901;55.024;73.254;2024-01-11T00:42:26;98782.91;;;-24.10;76.09
84677;BME280;74901;55.024;73.254;2024-01-11T00:44:55;98772.31;;;-24.08;76.27
84677;BME280;74901;55.024;73.254;2024-01-11T00:47:25;98774.38;;;-24.17;75.56
84677;BME280;74901;55.024;73.254;2024-01-11T00:49:53;98783.03;;;-24.23;76.02
84677;BME280;74901;55.024;73.254;2024-01-11T00:52:22;98807.00;;;-24.21;75.44
84677;BME280;74901;55.024;73.254;2024-01-11T00:54:51;98783.03;;;-24.23;75.68
84677;BME280;74901;55.024;73.254;2024-01-11T00:57:19;98810.38;;;-24.20;75.90
84677;BME280;74901;55.024;73.254;2024-01-11T00:59:50;98795.44;;;-24.25;76.11
84677;BME280;74901;55.024;73.254;2024-01-11T01:02:20;98794.41;;;-24.24;75.86
84677;BME280;74901;55.024;73.254;2024-01-11T01:04:49;98805.44;;;-24.28;75.67
84677;BME280;74901;55.024;73.254;2024-01-11T01:07:18;98853.78;;;-24.34;75.41
84677;BME280;74901;55.024;73.254;2024-01-11T01:09:47;98801.53;;;-24.38;75.85
84677;BME280;74901;55.024;73.254;2024-01-11T01:12:15;98791.50;;;-24.34;76.00
84677;BME280;74901;55.024;73.254;2024-01-11T01:14:44;98802.91;;;-24.35;75.57
84677;BME280;74901;55.024;73.254;2024-01-11T01:17:14;98820.09;;;-24.41;76.20
84677;BME280;74901;55.024;73.254;2024-01-11T01:19:44;98793.09;;;-24.64;75.95
84677;BME280;74901;55.024;73.254;2024-01-11T01:22:15;98822.53;;;-24.46;75.78
84677;BME280;74901;55.024;73.254;2024-01-11T01:24:44;98831.16;;;-24.52;75.39
84677;BME280;74901;55.024;73.254;2024-01-11T01:27:12;98849.13;;;-24.57;75.31
84677;BME280;74901;55.024;73.254;2024-01-11T01:29:41;98847.34;;;-24.56;76.02
84677;BME280;74901;55.024;73.254;2024-01-11T01:32:10;98836.59;;;-24.66;75.99
84677;BME280;74901;55.024;73.254;2024-01-11T01:34:40;98875.28;;;-24.58;75.62
84677;BME280;74901;55.024;73.254;2024-01-11T01:37:09;98869.72;;;-24.62;76.11
84677;BME280;74901;55.024;73.254;2024-01-11T01:39:38;98870.72;;;-24.63;75.53
84677;BME280;74901;55.024;73.254;2024-01-11T01:42:06;98822.16;;;-24.87;75.36
84677;BME280;74901;55.024;73.254;2024-01-11T01:44:38;98875.34;;;-24.72;75.83
84677;BME280;74901;55.024;73.254;2024-01-11T01:47:09;98933.81;;;-24.76;75.37
84677;BME280;74901;55.024;73.254;2024-01-11T01:49:40;98904.84;;;-24.73;75.47
84677;BME280;74901;55.024;73.254;2024-01-11T01:52:11;98921.03;;;-24.77;75.82
84677;BME280;74901;55.024;73.254;2024-01-11T01:54:43;98914.88;;;-24.83;75.44
84677;BME280;74901;55.024;73.254;2024-01-11T01:57:12;98931.22;;;-24.82;75.09
84677;BME280;74901;55.024;73.254;2024-01-11T01:59:42;98929.25;;;-24.87;75.48
84677;BME280;74901;55.024;73.254;2024-01-11T02:02:12;98932.63;;;-24.86;75.13
84677;BME280;74901;55.024;73.254;2024-01-11T02:04:43;98941.81;;;-24.84;75.03
84677;BME280;74901;55.024;73.254;2024-01-11T02:07:11;98933.06;;;-24.89;75.43
84677;BME280;74901;55.024;73.254;2024-01-11T02:09:41;98920.13;;;-24.89;75.47
84677;BME280;74901;55.024;73.254;2024-01-11T02:12:11;98930.72;;;-25.04;75.28
84677;BME280;74901;55.024;73.254;2024-01-11T02:14:41;98964.00;;;-24.94;75.56
84677;BME280;74901;55.024;73.254;2024-01-11T02:17:10;98949.63;;;-24.97;75.13
84677;BME280;74901;55.024;73.254;2024-01-11T02:19:39;98963.59;;;-25.04;75.38
84677;BME280;74901;55.024;73.254;2024-01-11T02:22:15;98976.19;;;-25.08;75.39
84677;BME280;74901;55.024;73.254;2024-01-11T02:24:48;98975.00;;;-25.05;74.86
84677;BME280;74901;55.024;73.254;2024-01-11T02:27:17;98979.75;;;-25.09;75.22
84677;BME280;74901;55.024;73.254;2024-01-11T02:29:45;98986.75;;;-25.09;74.95
84677;BME280;74901;55.024;73.254;2024-01-11T02:32:15;99007.28;;;-25.08;74.82
84677;BME280;74901;55.024;73.254;2024-01-11T02:34:44;99000.13;;;-25.06;75.29
84677;BME280;74901;55.024;73.254;2024-01-11T02:37:13;99023.22;;;-25.04;74.87
84677;BME280;74901;55.024;73.254;2024-01-11T02:39:42;99013.88;;;-25.12;75.33
84677;BME280;74901;55.024;73.254;2024-01-11T02:42:13;99036.78;;;-25.16;74.67
84677;BME280;74901;55.024;73.254;2024-01-11T02:44:42;99014.06;;;-25.20;74.76
84677;BME280;74901;55.024;73.254;2024-01-11T02:47:11;99011.88;;;-25.23;74.78
84677;BME280;74901;55.024;73.254;2024-01-11T02:49:38;99027.63;;;-25.31;75.23
84677;BME280;74901;55.024;73.254;2024-01-11T02:52:07;99030.59;;;-25.21;75.14
84677;BME280;74901;55.024;73.254;2024-01-11T02:54:36;99032.41;;;-25.22;74.91
84677;BME280;74901;55.024;73.254;2024-01-11T02:57:05;99050.94;;;-25.25;75.20
84677;BME280;74901;55.024;73.254;2024-01-11T02:59:36;99041.75;;;-25.40;75.03
84677;BME280;74901;55.024;73.254;2024-01-11T03:02:29;99059.72;;;-25.32;74.53
84677;BME280;74901;55.024;73.254;2024-01-11T03:04:58;99042.56;;;-25.27;75.04
84677;BME280;74901;55.024;73.254;2024-01-11T03:07:27;99054.34;;;-25.24;75.16
84677;BME280;74901;55.024;73.254;2024-01-11T03:09:57;99057.13;;;-25.26;74.97
84677;BME280;74901;55.024;73.254;2024-01-11T03:12:26;99066.88;;;-25.28;75.04
84677;BME280;74901;55.024;73.254;2024-01-11T03:14:57;99067.88;;;-25.29;75.06
84677;BME280;74901;55.024;73.254;2024-01-11T03:17:26;99072.25;;;-25.29;74.83
84677;BME280;74901;55.024;73.254;2024-01-11T03:19:54;99101.56;;;-25.29;74.50
84677;BME280;74901;55.024;73.254;2024-01-11T03:22:23;99089.00;;;-25.32;74.97
84677;BME280;74901;55.024;73.254;2024-01-11T03:24:52;99084.63;;;-25.31;74.34
84677;BME280;74901;55.024;73.254;2024-01-11T03:27:22;99089.19;;;-25.33;74.44
84677;BME280;74901;55.024;73.254;2024-01-11T03:29:51;99088.38;;;-25.40;74.70
84677;BME280;74901;55.024;73.254;2024-01-11T03:32:22;99111.69;;;-25.40;74.40
84677;BME280;74901;55.024;73.254;2024-01-11T03:34:51;99104.34;;;-25.43;74.63
84677;BME280;74901;55.024;73.254;2024-01-11T03:37:20;99088.97;;;-25.45;74.50
84677;BME280;74901;55.024;73.254;2024-01-11T03:39:50;99111.31;;;-25.44;74.40
84677;BME280;74901;55.024;73.254;2024-01-11T03:42:19;99098.94;;;-25.42;74.36
84677;BME280;74901;55.024;73.254;2024-01-11T03:44:47;99104.53;;;-25.45;74.70
84677;BME280;74901;55.024;73.254;2024-01-11T03:47:16;99077.81;;;-25.65;74.66
84677;BME280;74901;55.024;73.254;2024-01-11T03:49:47;99102.91;;;-25.46;74.29
84677;BME280;74901;55.024;73.254;2024-01-11T03:52:16;99109.09;;;-25.47;74.29
84677;BME280;74901;55.024;73.254;2024-01-11T03:54:44;99106.13;;;-25.44;74.24
84677;BME280;74901;55.024;73.254;2024-01-11T03:57:14;99096.13;;;-25.47;74.93
84677;BME280;74901;55.024;73.254;2024-01-11T03:59:43;99119.88;;;-25.43;74.27
84677;BME280;74901;55.024;73.254;2024-01-11T04:02:12;99140.59;;;-25.43;74.56
84677;BME280;74901;55.024;73.254;2024-01-11T04:04:41;99099.34;;;-25.45;74.76
84677;BME280;74901;55.024;73.254;2024-01-11T04:07:11;99132.41;;;-25.40;74.97
84677;BME280;74901;55.024;73.254;2024-01-11T04:09:40;99119.66;;;-25.42;74.96
84677;BME280;74901;55.024;73.254;2024-01-11T04:12:09;99132.41;;;-25.40;75.25
84677;BME280;74901;55.024;73.254;2024-01-11T04:14:38;99129.66;;;-25.39;75.46
84677;BME280;74901;55.024;73.254;2024-01-11T04:17:08;99161.53;;;-25.38;74.90
84677;BME280;74901;55.024;73.254;2024-01-11T04:19:36;99143.41;;;-25.38;74.83
84677;BME280;74901;55.024;73.254;2024-01-11T04:22:05;99147.00;;;-25.33;75.21
84677;BME280;74901;55.024;73.254;2024-01-11T04:24:36;99141.63;;;-25.31;74.72
84677;BME280;74901;55.024;73.254;2024-01-11T04:27:06;99147.00;;;-25.26;75.50
84677;BME280;74901;55.024;73.254;2024-01-11T04:29:34;99149.59;;;-25.26;75.35
84677;BME280;74901;55.024;73.254;2024-01-11T04:32:04;99151.41;;;-25.20;75.23
84677;BME280;74901;55.024;73.254;2024-01-11T04:34:33;99158.56;;;-25.22;75.63
84677;BME280;74901;55.024;73.254;2024-01-11T04:37:02;99157.22;;;-25.18;74.89
84677;BME280;74901;55.024;73.254;2024-01-11T04:39:31;99165.59;;;-25.09;75.43
84677;BME280;74901;55.024;73.254;2024-01-11T04:42:02;99161.38;;;-25.10;74.91
84677;BME280;74901;55.024;73.254;2024-01-11T04:44:31;99177.38;;;-25.00;75.41
84677;BME280;74901;55.024;73.254;2024-01-11T04:47:00;99161.19;;;-25.09;74.89
84677;BME280;74901;55.024;73.254;2024-01-11T04:49:29;99187.94;;;-24.95;74.98
84677;BME280;74901;55.024;73.254;2024-01-11T04:51:58;99196.13;;;-24.92;75.27
84677;BME280;74901;55.024;73.254;2024-01-11T04:54:27;99190.34;;;-24.87;75.46
84677;BME280;74901;55.024;73.254;2024-01-11T04:56:59;99199.91;;;-24.81;75.20
84677;BME280;74901;55.024;73.254;2024-01-11T04:59:30;99204.09;;;-24.74;75.22
84677;BME280;74901;55.024;73.254;2024-01-11T05:01:59;99215.69;;;-24.69;75.50
84677;BME280;74901;55.024;73.254;2024-01-11T05:04:27;99217.06;;;-24.67;74.80
84677;BME280;74901;55.024;73.254;2024-01-11T05:06:56;99225.28;;;-24.63;75.25
84677;BME280;74901;55.024;73.254;2024-01-11T05:09:25;99221.47;;;-24.61;74.64
84677;BME280;74901;55.024;73.254;2024-01-11T05:11:54;99226.06;;;-24.63;74.83
84677;BME280;74901;55.024;73.254;2024-01-11T05:14:23;99215.88;;;-24.64;74.88
84677;BME280;74901;55.024;73.254;2024-01-11T05:16:52;99232.06;;;-24.56;75.33
84677;BME280;74901;55.024;73.254;2024-01-11T05:19:21;99230.66;;;-24.52;75.39
84677;BME280;74901;55.024;73.254;2024-01-11T05:21:50;99255.41;;;-24.49;74.86
84677;BME280;74901;55.024;73.254;2024-01-11T05:24:18;99226.28;;;-24.51;75.28
84677;BME280;74901;55.024;73.254;2024-01-11T05:26:47;99242.06;;;-24.46;75.42
84677;BME280;74901;55.024;73.254;2024-01-11T05:29:16;99243.47;;;-24.44;75.04
84677;BME280;74901;55.024;73.254;2024-01-11T05:31:45;99222.88;;;-24.58;75.21
84677;BME280;74901;55.024;73.254;2024-01-11T05:34:15;99261.22;;;-24.34;75.03
84677;BME280;74901;55.024;73.254;2024-01-11T05:36:44;99254.03;;;-24.32;75.44
84677;BME280;74901;55.024;73.254;2024-01-11T05:39:13;99254.63;;;-24.30;75.71
84677;BME280;74901;55.024;73.254;2024-01-11T05:41:44;99265.81;;;-24.29;75.72
84677;BME280;74901;55.024;73.254;2024-01-11T05:44:13;99239.84;;;-24.23;75.40
84677;BME280;74901;55.024;73.254;2024-01-11T05:46:42;99243.44;;;-24.24;75.57
84677;BME280;74901;55.024;73.254;2024-01-11T05:49:11;99238.47;;;-24.32;75.70
84677;BME280;74901;55.024;73.254;2024-01-11T05:51:42;99243.66;;;-24.32;76.01
84677;BME280;74901;55.024;73.254;2024-01-11T05:54:11;99253.03;;;-24.38;75.76
84677;BME280;74901;55.024;73.254;2024-01-11T05:56:40;99258.00;;;-24.36;75.38
84677;BME280;74901;55.024;73.254;2024-01-11T05:59:09;99249.84;;;-24.33;75.34
84677;BME280;74901;55.024;73.254;2024-01-11T06:01:41;99250.44;;;-24.31;75.31
84677;BME280;74901;55.024;73.254;2024-01-11T06:04:11;99269.63;;;-24.25;75.68
84677;BME280;74901;55.024;73.254;2024-01-11T06:06:41;99237.69;;;-24.26;75.73
84677;BME280;74901;55.024;73.254;2024-01-11T06:09:11;99213.50;;;-24.26;75.90
84677;BME280;74901;55.024;73.254;2024-01-11T06:11:39;99235.88;;;-24.32;75.69
84677;BME280;74901;55.024;73.254;2024-01-11T06:14:11;99245.22;;;-24.31;76.02
84677;BME280;74901;55.024;73.254;2024-01-11T06:16:41;99257.81;;;-24.35;75.77
84677;BME280;74901;55.024;73.254;2024-01-11T06:19:10;99244.25;;;-24.30;76.24
84677;BME280;74901;55.024;73.254;2024-01-11T06:21:39;99242.63;;;-24.31;75.81
84677;BME280;74901;55.024;73.254;2024-01-11T06:24:10;99240.66;;;-24.29;75.76
84677;BME280;74901;55.024;73.254;2024-01-11T06:26:39;99253.03;;;-24.24;75.66
84677;BME280;74901;55.024;73.254;2024-01-11T06:29:08;99233.06;;;-24.24;76.05
84677;BME280;74901;55.024;73.254;2024-01-11T06:31:37;99243.41;;;-24.17;76.81
84677;BME280;74901;55.024;73.254;2024-01-11T06:34:06;99256.19;;;-24.09;76.37
84677;BME280;74901;55.024;73.254;2024-01-11T06:36:34;99240.25;;;-24.13;76.19
84677;BME280;74901;55.024;73.254;2024-01-11T06:39:03;99240.44;;;-23.95;76.85
84677;BME280;74901;55.024;73.254;2024-01-11T06:41:34;99252.38;;;-23.94;77.12
84677;BME280;74901;55.024;73.254;2024-01-11T06:44:03;99251.19;;;-23.98;77.18
84677;BME280;74901;55.024;73.254;2024-01-11T06:46:32;99254.59;;;-23.91;77.11
84677;BME280;74901;55.024;73.254;2024-01-11T06:49:02;99240.41;;;-23.88;77.27
84677;BME280;74901;55.024;73.254;2024-01-11T06:51:31;99244.00;;;-23.82;77.43
84677;BME280;74901;55.024;73.254;2024-01-11T06:54:00;99251.19;;;-23.78;77.69
84677;BME280;74901;55.024;73.254;2024-01-11T06:56:29;99268.56;;;-23.72;78.06
84677;BME280;74901;55.024;73.254;2024-01-11T06:59:00;99264.97;;;-23.77;77.70
84677;BME280;74901;55.024;73.254;2024-01-11T07:01:29;99270.56;;;-23.80;77.30
84677;BME280;74901;55.024;73.254;2024-01-11T07:03:57;99260.34;;;-23.75;76.89
84677;BME280;74901;55.024;73.254;2024-01-11T07:06:26;99272.94;;;-23.72;77.71
84677;BME280;74901;55.024;73.254;2024-01-11T07:08:55;99267.34;;;-23.69;77.71
84677;BME280;74901;55.024;73.254;2024-01-11T07:11:25;99251.16;;;-23.71;77.58
84677;BME280;74901;55.024;73.254;2024-01-11T07:13:53;99271.09;;;-23.45;77.61
84677;BME280;74901;55.024;73.254;2024-01-11T07:16:24;99262.25;;;-23.44;77.95
84677;BME280;74901;55.024;73.254;2024-01-11T07:18:54;99258.13;;;-23.52;77.72
84677;BME280;74901;55.024;73.254;2024-01-11T07:21:24;99268.34;;;-23.57;78.26
84677;BME280;74901;55.024;73.254;2024-01-11T07:23:56;99255.13;;;-23.56;78.03
84677;BME280;74901;55.024;73.254;2024-01-11T07:26:25;99260.31;;;-23.56;77.75
84677;BME280;74901;55.024;73.254;2024-01-11T07:28:54;99252.94;;;-23.52;78.03
84677;BME280;74901;55.024;73.254;2024-01-11T07:31:25;99258.69;;;-23.50;77.51
84677;BME280;74901;55.024;73.254;2024-01-11T07:33:56;99243.09;;;-23.50;77.50
84677;BME280;74901;55.024;73.254;2024-01-11T07:36:24;99266.13;;;-23.54;76.86
84677;BME280;74901;55.024;73.254;2024-01-11T07:38:53;99257.31;;;-23.53;76.82
84677;BME280;74901;55.024;73.254;2024-01-11T07:41:22;99266.50;;;-23.50;76.52
84677;BME280;74901;55.024;73.254;2024-01-11T07:43:52;99271.88;;;-23.45;76.61
84677;BME280;74901;55.024;73.254;2024-01-11T07:46:27;99268.06;;;-23.42;76.68
84677;BME280;74901;55.024;73.254;2024-01-11T07:48:55;99279.44;;;-23.37;77.09
84677;BME280;74901;55.024;73.254;2024-01-11T07:51:25;99271.25;;;-23.34;76.54
84677;BME280;74901;55.024;73.254;2024-01-11T07:53:54;99263.81;;;-23.30;76.90
84677;BME280;74901;55.024;73.254;2024-01-11T07:56:24;99275.63;;;-23.28;76.46
84677;BME280;74901;55.024;73.254;2024-01-11T07:58:53;99280.81;;;-23.28;76.05
84677;BME280;74901;55.024;73.254;2024-01-11T08:01:22;99283.81;;;-23.31;76.38
84677;BME280;74901;55.024;73.254;2024-01-11T08:03:52;99293.00;;;-23.22;76.50
84677;BME280;74901;55.024;73.254;2024-01-11T08:06:22;99284.78;;;-23.19;76.33
84677;BME280;74901;55.024;73.254;2024-01-11T08:08:51;99301.59;;;-23.15;75.71
84677;BME280;74901;55.024;73.254;2024-01-11T08:11:20;99306.16;;;-23.10;75.97
84677;BME280;74901;55.024;73.254;2024-01-11T08:13:49;99287.34;;;-23.12;76.43
84677;BME280;74901;55.024;73.254;2024-01-11T08:16:21;99292.75;;;-23.07;76.37
84677;BME280;74901;55.024;73.254;2024-01-11T08:18:52;99294.31;;;-22.99;75.95
84677;BME280;74901;55.024;73.254;2024-01-11T08:21:21;99288.72;;;-22.96;75.77
84677;BME280;74901;55.024;73.254;2024-01-11T08:23:51;99298.13;;;-22.95;75.92
84677;BME280;74901;55.024;73.254;2024-01-11T08:26:22;99294.91;;;-22.97;76.23
84677;BME280;74901;55.024;73.254;2024-01-11T08:28:52;99293.13;;;-22.97;75.67
84677;BME280;74901;55.024;73.254;2024-01-11T08:31:21;99300.50;;;-22.94;76.01
84677;BME280;74901;55.024;73.254;2024-01-11T08:33:50;99290.72;;;-22.98;75.61
84677;BME280;74901;55.024;73.254;2024-01-11T08:36:20;99301.31;;;-23.00;76.30
84677;BME280;74901;55.024;73.254;2024-01-11T08:38:49;99316.75;;;-23.05;75.72
84677;BME280;74901;55.024;73.254;2024-01-11T08:41:18;99293.97;;;-23.10;76.34
84677;BME280;74901;55.024;73.254;2024-01-11T08:43:47;99302.75;;;-23.04;76.01
84677;BME280;74901;55.024;73.254;2024-01-11T08:46:24;99307.50;;;-22.94;76.31
84677;BME280;74901;55.024;73.254;2024-01-11T08:48:53;99329.72;;;-22.92;75.84
84677;BME280;74901;55.024;73.254;2024-01-11T08:51:25;99297.34;;;-23.02;76.29
84677;BME280;74901;55.024;73.254;2024-01-11T08:53:53;99327.47;;;-22.88;75.79
84677;BME280;74901;55.024;73.254;2024-01-11T08:56:22;99329.69;;;-22.85;76.46
84677;BME280;74901;55.024;73.254;2024-01-11T08:58:51;99333.47;;;-22.81;76.18
84677;BME280;74901;55.024;73.254;2024-01-11T09:01:20;99310.53;;;-22.97;75.64
84677;BME280;74901;55.024;73.254;2024-01-11T09:03:51;99338.88;;;-22.83;76.37
84677;BME280;74901;55.024;73.254;2024-01-11T09:06:21;99336.09;;;-22.88;76.26
84677;BME280;74901;55.024;73.254;2024-01-11T09:08:52;99337.53;;;-22.92;76.50
84677;BME280;74901;55.024;73.254;2024-01-11T09:11:21;99360.31;;;-22.87;76.34
84677;BME280;74901;55.024;73.254;2024-01-11T09:13:50;99342.50;;;-22.84;76.22
84677;BME280;74901;55.024;73.254;2024-01-11T09:16:18;99345.13;;;-22.90;75.48
84677;BME280;74901;55.024;73.254;2024-01-11T09:18:48;99344.72;;;-22.94;75.86
84677;BME280;74901;55.024;73.254;2024-01-11T09:21:16;99357.75;;;-23.00;75.54
84677;BME280;74901;55.024;73.254;2024-01-11T09:23:45;99355.94;;;-23.00;75.83
84677;BME280;74901;55.024;73.254;2024-01-11T09:26:15;99373.97;;;-23.12;75.05
84677;BME280;74901;55.024;73.254;2024-01-11T09:28:44;99355.59;;;-23.23;74.99
84677;BME280;74901;55.024;73.254;2024-01-11T09:31:14;99371.03;;;-23.28;75.73
84677;BME280;74901;55.024;73.254;2024-01-11T09:33:43;99362.81;;;-23.32;75.14
84677;BME280;74901;55.024;73.254;2024-01-11T09:36:13;99350.28;;;-23.48;75.02
84677;BME280;74901;55.024;73.254;2024-01-11T09:38:42;99374.25;;;-23.39;74.87
84677;BME280;74901;55.024;73.254;2024-01-11T09:41:13;99355.81;;;-23.44;74.98
84677;BME280;74901;55.024;73.254;2024-01-11T09:43:43;99381.66;;;-23.56;74.80
84677;BME280;74901;55.024;73.254;2024-01-11T09:46:16;99354.91;;;-23.70;74.98
84677;BME280;74901;55.024;73.254;2024-01-11T09:48:45;99377.47;;;-23.57;75.07
84677;BME280;74901;55.024;73.254;2024-01-11T09:51:16;99378.47;;;-23.65;74.61
84677;BME280;74901;55.024;73.254;2024-01-11T09:53:46;99375.88;;;-23.65;74.60
84677;BME280;74901;55.024;73.254;2024-01-11T09:56:15;99381.66;;;-23.69;74.83
84677;BME280;74901;55.024;73.254;2024-01-11T09:58:47;99390.25;;;-23.75;74.99
84677;BME280;74901;55.024;73.254;2024-01-11T10:01:17;99384.47;;;-23.84;74.52
84677;BME280;74901;55.024;73.254;2024-01-11T10:07:06;99386.66;;;-24.01;74.00
84677;BME280;74901;55.024;73.254;2024-01-11T10:09:36;99406.41;;;-24.00;74.65
84677;BME280;74901;55.024;73.254;2024-01-11T10:12:05;99418.00;;;-24.02;74.49
84677;BME280;74901;55.024;73.254;2024-01-11T10:14:36;99402.22;;;-24.07;74.72
84677;BME280;74901;55.024;73.254;2024-01-11T10:17:05;99415.56;;;-24.10;74.98
84677;BME280;74901;55.024;73.254;2024-01-11T10:19:34;99422.16;;;-24.14;74.72
84677;BME280;74901;55.024;73.254;2024-01-11T10:22:03;99426.97;;;-24.18;74.80
84677;BME280;74901;55.024;73.254;2024-01-11T10:24:33;99413.41;;;-24.20;74.61
84677;BME280;74901;55.024;73.254;2024-01-11T10:27:03;99417.59;;;-24.19;74.30
84677;BME280;74901;55.024;73.254;2024-01-11T10:29:35;99423.34;;;-24.23;74.57
84677;BME280;74901;55.024;73.254;2024-01-11T10:32:05;99434.97;;;-24.19;74.80
84677;BME280;74901;55.024;73.254;2024-01-11T10:34:36;99445.13;;;-24.18;74.30
84677;BME280;74901;55.024;73.254;2024-01-11T10:37:08;99442.75;;;-24.19;74.18
84677;BME280;74901;55.024;73.254;2024-01-11T10:39:38;99456.72;;;-24.14;74.32
84677;BME280;74901;55.024;73.254;2024-01-11T10:42:09;99457.81;;;-23.23;74.67
84677;BME280;74901;55.024;73.254;2024-01-11T10:44:42;99460.94;;;-22.10;73.16
84677;BME280;74901;55.024;73.254;2024-01-11T10:47:14;99457.56;;;-21.86;72.60
84677;BME280;74901;55.024;73.254;2024-01-11T10:49:45;99464.66;;;-22.44;71.46
84677;BME280;74901;55.024;73.254;2024-01-11T10:52:16;99465.19;;;-22.87;72.17
84677;BME280;74901;55.024;73.254;2024-01-11T10:54:53;99475.59;;;-23.00;72.21
84677;BME280;74901;55.024;73.254;2024-01-11T10:57:23;99478.41;;;-23.34;72.15
84677;BME280;74901;55.024;73.254;2024-01-11T10:59:54;99480.94;;;-23.94;72.70
84677;BME280;74901;55.024;73.254;2024-01-11T11:02:24;99485.41;;;-24.35;74.22
84677;BME280;74901;55.024;73.254;2024-01-11T11:04:54;99477.69;;;-24.63;74.64
84677;BME280;74901;55.024;73.254;2024-01-11T11:07:27;99490.94;;;-24.79;74.69
84677;BME280;74901;55.024;73.254;2024-01-11T11:09:56;99498.66;;;-24.92;74.49
84677;BME280;74901;55.024;73.254;2024-01-11T11:12:26;99509.00;;;-24.99;73.85
84677;BME280;74901;55.024;73.254;2024-01-11T11:14:57;99521.72;;;-25.04;74.52
84677;BME280;74901;55.024;73.254;2024-01-11T11:17:27;99508.72;;;-25.10;73.81
84677;BME280;74901;55.024;73.254;2024-01-11T11:19:57;99515.69;;;-25.11;73.67
84677;BME280;74901;55.024;73.254;2024-01-11T11:22:27;99517.81;;;-25.21;73.39
84677;BME280;74901;55.024;73.254;2024-01-11T11:25:03;99512.75;;;-25.29;73.51
84677;BME280;74901;55.024;73.254;2024-01-11T11:27:35;99519.47;;;-25.35;73.40
84677;BME280;74901;55.024;73.254;2024-01-11T11:30:06;99536.56;;;-25.40;73.39
84677;BME280;74901;55.024;73.254;2024-01-11T11:32:38;99527.94;;;-25.47;73.62
84677;BME280;74901;55.024;73.254;2024-01-11T11:35:07;99539.44;;;-25.57;73.39
84677;BME280;74901;55.024;73.254;2024-01-11T11:37:37;99542.13;;;-25.65;73.67
84677;BME280;74901;55.024;73.254;2024-01-11T11:40:06;99543.69;;;-25.70;73.86
84677;BME280;74901;55.024;73.254;2024-01-11T11:42:37;99543.78;;;-25.78;73.74
84677;BME280;74901;55.024;73.254;2024-01-11T11:45:10;99546.13;;;-25.83;73.00
84677;BME280;74901;55.024;73.254;2024-01-11T11:47:40;99557.84;;;-25.87;73.15
84677;BME280;74901;55.024;73.254;2024-01-11T11:50:11;99578.28;;;-25.92;73.42
84677;BME280;74901;55.024;73.254;2024-01-11T11:52:43;99570.44;;;-25.99;73.59
84677;BME280;74901;55.024;73.254;2024-01-11T11:55:13;99560.34;;;-26.09;73.72
84677;BME280;74901;55.024;73.254;2024-01-11T11:57:44;99544.50;;;-26.20;73.02
84677;BME280;74901;55.024;73.254;2024-01-11T12:00:16;99566.06;;;-26.13;73.48
84677;BME280;74901;55.024;73.254;2024-01-11T12:02:47;99559.28;;;-26.14;72.73
84677;BME280;74901;55.024;73.254;2024-01-11T12:05:16;99568.59;;;-26.20;73.41
84677;BME280;74901;55.024;73.254;2024-01-11T12:07:45;99556.81;;;-26.22;73.35
84677;BME280;74901;55.024;73.254;2024-01-11T12:10:14;99555.97;;;-26.29;73.07
84677;BME280;74901;55.024;73.254;2024-01-11T12:12:45;99572.47;;;-26.30;73.04
84677;BME280;74901;55.024;73.254;2024-01-11T12:15:16;99575.75;;;-26.36;72.58
84677;BME280;74901;55.024;73.254;2024-01-11T12:17:46;99574.78;;;-26.35;72.89
84677;BME280;74901;55.024;73.254;2024-01-11T12:20:15;99581.09;;;-26.38;72.87
84677;BME280;74901;55.024;73.254;2024-01-11T12:22:47;99589.56;;;-26.44;72.50
84677;BME280;74901;55.024;73.254;2024-01-11T12:25:16;99589.16;;;-26.48;73.20
84677;BME280;74901;55.024;73.254;2024-01-11T12:27:45;99583.50;;;-26.51;72.79
84677;BME280;74901;55.024;73.254;2024-01-11T12:30:18;99596.44;;;-26.51;72.88
84677;BME280;74901;55.024;73.254;2024-01-11T12:32:47;99597.94;;;-26.57;72.84
84677;BME280;74901;55.024;73.254;2024-01-11T12:35:16;99585.78;;;-26.71;72.94
84677;BME280;74901;55.024;73.254;2024-01-11T12:37:53;99605.16;;;-26.67;72.49
84677;BME280;74901;55.024;73.254;2024-01-11T12:40:22;99607.47;;;-26.72;73.25
84677;BME280;74901;55.024;73.254;2024-01-11T12:42:54;99607.81;;;-26.75;72.56
84677;BME280;74901;55.024;73.254;2024-01-11T12:45:27;99613.00;;;-26.75;73.22
84677;BME280;74901;55.024;73.254;2024-01-11T12:47:57;99613.34;;;-26.78;72.87
84677;BME280;74901;55.024;73.254;2024-01-11T12:50:26;99619.66;;;-26.81;72.37
84677;BME280;74901;55.024;73.254;2024-01-11T12:53:05;99613.25;;;-26.85;72.44
84677;BME280;74901;55.024;73.254;2024-01-11T12:55:35;99622.34;;;-26.89;73.05